New Albany, Pennsylvania
Current Conditions -  °F | °C
As of 9:54 PM on Friday 21 Nov 2014 (Local Time) from KIPT Reporting Station
Clear Clear  
Wind Chill: 16°   Ceiling: Unl
Heat Index: 24°   Visibility: 10mi
Dew Point:   Wind: 7mph
Humidity: 53%   Direction: 280°W
Pressure: 30.49"   Gusts: NA
Location:  41.6°N, 76.44°W
Report Text: KIPT 220254Z 28006KT 10SM CLR M04/M13 A3049 RMK AO2 SLP331 T10441128 50006
Loading
Personal Weather Stations






























Interactive Weather Map New forecast layout! Learn more

10-Day Weather Forecast

Advertisements
Track Severe Weather on mobile